sensor_id;sensor_type;location;lat;lon;timestamp;P1;durP1;ratioP1;P2;durP2;ratioP2
7669;SDS011;3877;42.562;27.636;2022-12-07T00:00:54;24.30;;;13.77;;
7669;SDS011;3877;42.562;27.636;2022-12-07T00:03:22;17.03;;;12.63;;
7669;SDS011;3877;42.562;27.636;2022-12-07T00:05:49;17.07;;;12.23;;
7669;SDS011;3877;42.562;27.636;2022-12-07T00:08:16;22.30;;;14.27;;
7669;SDS011;3877;42.562;27.636;2022-12-07T00:10:43;22.87;;;15.20;;
7669;SDS011;3877;42.562;27.636;2022-12-07T00:13:09;27.90;;;16.27;;
7669;SDS011;3877;42.562;27.636;2022-12-07T00:15:36;25.90;;;16.27;;
7669;SDS011;3877;42.562;27.636;2022-12-07T00:18:03;26.37;;;16.23;;
7669;SDS011;3877;42.562;27.636;2022-12-07T00:20:31;22.20;;;15.70;;
7669;SDS011;3877;42.562;27.636;2022-12-07T00:22:58;23.67;;;16.23;;
7669;SDS011;3877;42.562;27.636;2022-12-07T00:25:25;26.07;;;16.73;;
7669;SDS011;3877;42.562;27.636;2022-12-07T00:27:52;23.10;;;16.27;;
7669;SDS011;3877;42.562;27.636;2022-12-07T00:30:21;27.63;;;19.10;;
7669;SDS011;3877;42.562;27.636;2022-12-07T00:32:47;27.53;;;20.67;;
7669;SDS011;3877;42.562;27.636;2022-12-07T00:35:14;26.60;;;20.13;;
7669;SDS011;3877;42.562;27.636;2022-12-07T00:37:43;33.03;;;21.07;;
7669;SDS011;3877;42.562;27.636;2022-12-07T00:40:10;33.90;;;19.20;;
7669;SDS011;3877;42.562;27.636;2022-12-07T00:42:37;27.97;;;18.63;;
7669;SDS011;3877;42.562;27.636;2022-12-07T00:45:04;29.83;;;18.80;;
7669;SDS011;3877;42.562;27.636;2022-12-07T00:47:32;27.17;;;17.87;;
7669;SDS011;3877;42.562;27.636;2022-12-07T00:49:59;24.80;;;16.67;;
7669;SDS011;3877;42.562;27.636;2022-12-07T00:52:26;25.77;;;17.23;;
7669;SDS011;3877;42.562;27.636;2022-12-07T00:54:54;26.97;;;17.87;;
7669;SDS011;3877;42.562;27.636;2022-12-07T00:57:20;28.27;;;20.40;;
7669;SDS011;3877;42.562;27.636;2022-12-07T00:59:47;28.40;;;20.80;;
7669;SDS011;3877;42.562;27.636;2022-12-07T01:02:14;27.33;;;19.10;;
7669;SDS011;3877;42.562;27.636;2022-12-07T01:04:41;32.17;;;19.70;;
7669;SDS011;3877;42.562;27.636;2022-12-07T01:07:08;29.97;;;20.17;;
7669;SDS011;3877;42.562;27.636;2022-12-07T01:09:35;33.73;;;21.70;;
7669;SDS011;3877;42.562;27.636;2022-12-07T01:12:04;34.20;;;20.60;;
7669;SDS011;3877;42.562;27.636;2022-12-07T01:14:31;35.83;;;21.63;;
7669;SDS011;3877;42.562;27.636;2022-12-07T01:16:58;33.83;;;21.67;;
7669;SDS011;3877;42.562;27.636;2022-12-07T01:19:24;31.37;;;21.17;;
7669;SDS011;3877;42.562;27.636;2022-12-07T01:21:52;33.37;;;22.23;;
7669;SDS011;3877;42.562;27.636;2022-12-07T01:24:18;33.13;;;21.43;;
7669;SDS011;3877;42.562;27.636;2022-12-07T01:26:45;27.83;;;20.13;;
7669;SDS011;3877;42.562;27.636;2022-12-07T01:29:13;29.23;;;19.60;;
7669;SDS011;3877;42.562;27.636;2022-12-07T01:31:40;28.00;;;19.43;;
7669;SDS011;3877;42.562;27.636;2022-12-07T01:34:07;27.27;;;18.20;;
7669;SDS011;3877;42.562;27.636;2022-12-07T01:36:35;22.60;;;15.93;;
7669;SDS011;3877;42.562;27.636;2022-12-07T01:39:03;21.03;;;14.87;;
7669;SDS011;3877;42.562;27.636;2022-12-07T01:41:31;25.90;;;15.53;;
7669;SDS011;3877;42.562;27.636;2022-12-07T01:44:09;20.37;;;14.93;;
7669;SDS011;3877;42.562;27.636;2022-12-07T01:46:38;23.17;;;15.30;;
7669;SDS011;3877;42.562;27.636;2022-12-07T01:49:05;25.57;;;15.23;;
7669;SDS011;3877;42.562;27.636;2022-12-07T01:51:33;24.23;;;16.37;;
7669;SDS011;3877;42.562;27.636;2022-12-07T01:54:00;25.63;;;16.47;;
7669;SDS011;3877;42.562;27.636;2022-12-07T01:56:27;26.80;;;17.40;;
7669;SDS011;3877;42.562;27.636;2022-12-07T01:58:55;30.60;;;18.93;;
7669;SDS011;3877;42.562;27.636;2022-12-07T02:01:22;29.23;;;19.43;;
7669;SDS011;3877;42.562;27.636;2022-12-07T02:03:51;25.33;;;17.07;;
7669;SDS011;3877;42.562;27.636;2022-12-07T02:06:19;23.60;;;16.60;;
7669;SDS011;3877;42.562;27.636;2022-12-07T02:08:47;23.03;;;16.13;;
7669;SDS011;3877;42.562;27.636;2022-12-07T02:11:14;22.23;;;15.73;;
7669;SDS011;3877;42.562;27.636;2022-12-07T02:13:41;27.17;;;14.67;;
7669;SDS011;3877;42.562;27.636;2022-12-07T02:16:12;21.30;;;15.73;;
7669;SDS011;3877;42.562;27.636;2022-12-07T02:18:45;23.20;;;16.87;;
7669;SDS011;3877;42.562;27.636;2022-12-07T02:21:17;24.77;;;16.23;;
7669;SDS011;3877;42.562;27.636;2022-12-07T02:23:55;26.13;;;17.67;;
7669;SDS011;3877;42.562;27.636;2022-12-07T02:29:23;22.57;;;15.40;;
7669;SDS011;3877;42.562;27.636;2022-12-07T02:31:53;25.23;;;16.03;;
7669;SDS011;3877;42.562;27.636;2022-12-07T02:34:35;25.50;;;15.57;;
7669;SDS011;3877;42.562;27.636;2022-12-07T02:37:05;23.37;;;16.90;;
7669;SDS011;3877;42.562;27.636;2022-12-07T02:39:34;24.57;;;16.90;;
7669;SDS011;3877;42.562;27.636;2022-12-07T02:42:07;23.30;;;16.07;;
7669;SDS011;3877;42.562;27.636;2022-12-07T02:44:38;20.43;;;15.23;;
7669;SDS011;3877;42.562;27.636;2022-12-07T02:47:06;25.10;;;15.57;;
7669;SDS011;3877;42.562;27.636;2022-12-07T02:49:35;27.23;;;16.23;;
7669;SDS011;3877;42.562;27.636;2022-12-07T02:52:02;26.77;;;16.20;;
7669;SDS011;3877;42.562;27.636;2022-12-07T02:54:29;23.10;;;15.63;;
7669;SDS011;3877;42.562;27.636;2022-12-07T02:56:57;26.10;;;15.70;;
7669;SDS011;3877;42.562;27.636;2022-12-07T02:59:30;23.53;;;15.97;;
7669;SDS011;3877;42.562;27.636;2022-12-07T03:02:05;23.47;;;16.73;;
7669;SDS011;3877;42.562;27.636;2022-12-07T03:04:37;25.13;;;17.13;;
7669;SDS011;3877;42.562;27.636;2022-12-07T03:07:06;24.17;;;17.43;;
7669;SDS011;3877;42.562;27.636;2022-12-07T03:09:37;25.00;;;17.47;;
7669;SDS011;3877;42.562;27.636;2022-12-07T03:12:08;28.13;;;17.30;;
7669;SDS011;3877;42.562;27.636;2022-12-07T03:14:37;23.60;;;16.37;;
7669;SDS011;3877;42.562;27.636;2022-12-07T03:17:08;22.70;;;15.17;;
7669;SDS011;3877;42.562;27.636;2022-12-07T03:19:37;24.70;;;15.90;;
7669;SDS011;3877;42.562;27.636;2022-12-07T03:22:05;26.10;;;16.73;;
7669;SDS011;3877;42.562;27.636;2022-12-07T03:24:35;30.67;;;16.30;;
7669;SDS011;3877;42.562;27.636;2022-12-07T03:27:04;25.20;;;16.70;;
7669;SDS011;3877;42.562;27.636;2022-12-07T03:29:33;23.93;;;16.43;;
7669;SDS011;3877;42.562;27.636;2022-12-07T03:32:02;21.07;;;14.13;;
7669;SDS011;3877;42.562;27.636;2022-12-07T03:34:32;23.93;;;15.03;;
7669;SDS011;3877;42.562;27.636;2022-12-07T03:37:01;26.27;;;15.60;;
7669;SDS011;3877;42.562;27.636;2022-12-07T03:39:33;23.93;;;15.17;;
7669;SDS011;3877;42.562;27.636;2022-12-07T03:42:00;23.37;;;15.13;;
7669;SDS011;3877;42.562;27.636;2022-12-07T03:44:28;24.47;;;15.73;;
7669;SDS011;3877;42.562;27.636;2022-12-07T03:46:57;21.60;;;14.27;;
7669;SDS011;3877;42.562;27.636;2022-12-07T03:49:25;22.00;;;13.87;;
7669;SDS011;3877;42.562;27.636;2022-12-07T03:51:56;23.30;;;13.37;;
7669;SDS011;3877;42.562;27.636;2022-12-07T03:54:28;20.10;;;13.13;;
7669;SDS011;3877;42.562;27.636;2022-12-07T03:56:56;19.33;;;12.63;;
7669;SDS011;3877;42.562;27.636;2022-12-07T03:59:24;21.37;;;12.20;;
7669;SDS011;3877;42.562;27.636;2022-12-07T04:01:52;18.50;;;12.70;;
7669;SDS011;3877;42.562;27.636;2022-12-07T04:04:19;18.63;;;12.23;;
7669;SDS011;3877;42.562;27.636;2022-12-07T04:06:46;21.90;;;13.13;;
7669;SDS011;3877;42.562;27.636;2022-12-07T04:09:15;22.50;;;13.93;;
7669;SDS011;3877;42.562;27.636;2022-12-07T04:11:42;19.73;;;13.50;;
7669;SDS011;3877;42.562;27.636;2022-12-07T04:14:08;23.83;;;13.53;;
7669;SDS011;3877;42.562;27.636;2022-12-07T04:16:44;22.50;;;14.33;;
7669;SDS011;3877;42.562;27.636;2022-12-07T04:19:11;25.13;;;15.43;;
7669;SDS011;3877;42.562;27.636;2022-12-07T04:21:38;23.03;;;15.20;;
7669;SDS011;3877;42.562;27.636;2022-12-07T04:24:05;27.10;;;16.30;;
7669;SDS011;3877;42.562;27.636;2022-12-07T04:26:33;23.83;;;15.90;;
7669;SDS011;3877;42.562;27.636;2022-12-07T04:29:00;25.40;;;16.27;;
7669;SDS011;3877;42.562;27.636;2022-12-07T04:31:27;23.23;;;15.83;;
7669;SDS011;3877;42.562;27.636;2022-12-07T04:33:54;26.00;;;16.40;;
7669;SDS011;3877;42.562;27.636;2022-12-07T04:36:21;26.17;;;16.70;;
7669;SDS011;3877;42.562;27.636;2022-12-07T04:38:48;32.33;;;17.60;;
7669;SDS011;3877;42.562;27.636;2022-12-07T04:41:15;25.80;;;17.13;;
7669;SDS011;3877;42.562;27.636;2022-12-07T04:43:43;28.00;;;17.97;;
7669;SDS011;3877;42.562;27.636;2022-12-07T04:46:10;30.47;;;18.70;;
7669;SDS011;3877;42.562;27.636;2022-12-07T04:48:37;28.87;;;18.80;;
7669;SDS011;3877;42.562;27.636;2022-12-07T04:51:04;35.43;;;19.60;;
7669;SDS011;3877;42.562;27.636;2022-12-07T04:53:31;30.90;;;20.00;;
7669;SDS011;3877;42.562;27.636;2022-12-07T04:55:58;32.90;;;19.83;;
7669;SDS011;3877;42.562;27.636;2022-12-07T04:58:26;32.27;;;21.10;;
7669;SDS011;3877;42.562;27.636;2022-12-07T05:00:55;31.77;;;21.63;;
7669;SDS011;3877;42.562;27.636;2022-12-07T05:03:22;33.97;;;21.00;;
7669;SDS011;3877;42.562;27.636;2022-12-07T05:05:49;28.40;;;20.03;;
7669;SDS011;3877;42.562;27.636;2022-12-07T05:08:16;31.27;;;20.33;;
7669;SDS011;3877;42.562;27.636;2022-12-07T05:10:43;32.77;;;20.40;;
7669;SDS011;3877;42.562;27.636;2022-12-07T05:13:10;30.77;;;19.83;;
7669;SDS011;3877;42.562;27.636;2022-12-07T05:15:37;34.77;;;20.37;;
7669;SDS011;3877;42.562;27.636;2022-12-07T05:18:05;33.77;;;21.40;;
7669;SDS011;3877;42.562;27.636;2022-12-07T05:20:32;38.17;;;23.37;;
7669;SDS011;3877;42.562;27.636;2022-12-07T05:22:59;37.70;;;21.37;;
7669;SDS011;3877;42.562;27.636;2022-12-07T05:25:26;31.60;;;21.63;;
7669;SDS011;3877;42.562;27.636;2022-12-07T05:27:54;34.97;;;21.13;;
7669;SDS011;3877;42.562;27.636;2022-12-07T05:30:21;34.43;;;21.70;;
7669;SDS011;3877;42.562;27.636;2022-12-07T05:32:48;34.57;;;22.30;;
7669;SDS011;3877;42.562;27.636;2022-12-07T05:35:16;35.20;;;22.60;;
7669;SDS011;3877;42.562;27.636;2022-12-07T05:37:44;38.23;;;22.50;;
7669;SDS011;3877;42.562;27.636;2022-12-07T05:40:12;33.53;;;22.33;;
7669;SDS011;3877;42.562;27.636;2022-12-07T05:42:39;36.07;;;23.17;;
7669;SDS011;3877;42.562;27.636;2022-12-07T05:45:06;39.50;;;23.03;;
7669;SDS011;3877;42.562;27.636;2022-12-07T05:47:33;39.33;;;23.60;;
7669;SDS011;3877;42.562;27.636;2022-12-07T05:50:00;39.90;;;23.97;;
7669;SDS011;3877;42.562;27.636;2022-12-07T05:52:29;42.40;;;23.17;;
7669;SDS011;3877;42.562;27.636;2022-12-07T05:54:56;61.47;;;39.97;;
7669;SDS011;3877;42.562;27.636;2022-12-07T05:57:23;33.17;;;22.20;;
7669;SDS011;3877;42.562;27.636;2022-12-07T05:59:50;36.33;;;22.60;;
7669;SDS011;3877;42.562;27.636;2022-12-07T06:02:16;34.37;;;21.93;;
7669;SDS011;3877;42.562;27.636;2022-12-07T06:04:45;35.53;;;21.50;;
7669;SDS011;3877;42.562;27.636;2022-12-07T06:07:13;30.83;;;19.70;;
7669;SDS011;3877;42.562;27.636;2022-12-07T06:09:41;38.93;;;19.47;;
7669;SDS011;3877;42.562;27.636;2022-12-07T06:12:09;26.10;;;17.23;;
7669;SDS011;3877;42.562;27.636;2022-12-07T06:14:53;21.40;;;14.90;;
7669;SDS011;3877;42.562;27.636;2022-12-07T06:17:20;24.63;;;16.77;;
7669;SDS011;3877;42.562;27.636;2022-12-07T06:19:47;28.60;;;20.23;;
7669;SDS011;3877;42.562;27.636;2022-12-07T06:22:14;26.27;;;17.83;;
7669;SDS011;3877;42.562;27.636;2022-12-07T06:24:42;25.17;;;17.37;;
7669;SDS011;3877;42.562;27.636;2022-12-07T06:27:10;27.50;;;16.87;;
7669;SDS011;3877;42.562;27.636;2022-12-07T06:29:37;31.20;;;19.00;;
7669;SDS011;3877;42.562;27.636;2022-12-07T06:32:04;36.27;;;23.63;;
7669;SDS011;3877;42.562;27.636;2022-12-07T06:34:31;39.90;;;23.90;;
7669;SDS011;3877;42.562;27.636;2022-12-07T06:36:58;55.03;;;34.27;;
7669;SDS011;3877;42.562;27.636;2022-12-07T06:39:26;55.17;;;33.77;;
7669;SDS011;3877;42.562;27.636;2022-12-07T06:41:55;40.73;;;26.53;;
7669;SDS011;3877;42.562;27.636;2022-12-07T06:44:23;37.97;;;23.77;;
7669;SDS011;3877;42.562;27.636;2022-12-07T06:46:50;35.83;;;21.70;;
7669;SDS011;3877;42.562;27.636;2022-12-07T06:49:18;28.97;;;22.10;;
7669;SDS011;3877;42.562;27.636;2022-12-07T06:51:45;30.70;;;20.20;;
7669;SDS011;3877;42.562;27.636;2022-12-07T06:54:12;27.43;;;20.07;;
7669;SDS011;3877;42.562;27.636;2022-12-07T06:56:39;28.33;;;21.33;;
7669;SDS011;3877;42.562;27.636;2022-12-07T06:59:08;30.10;;;20.07;;
7669;SDS011;3877;42.562;27.636;2022-12-07T07:01:35;26.23;;;17.77;;
7669;SDS011;3877;42.562;27.636;2022-12-07T07:04:03;23.40;;;18.30;;
7669;SDS011;3877;42.562;27.636;2022-12-07T07:06:30;29.83;;;19.10;;
7669;SDS011;3877;42.562;27.636;2022-12-07T07:08:57;21.97;;;16.60;;
7669;SDS011;3877;42.562;27.636;2022-12-07T07:11:24;20.20;;;13.93;;
7669;SDS011;3877;42.562;27.636;2022-12-07T07:13:51;20.43;;;15.90;;
7669;SDS011;3877;42.562;27.636;2022-12-07T07:16:19;19.63;;;14.67;;
7669;SDS011;3877;42.562;27.636;2022-12-07T07:18:46;20.77;;;13.23;;
7669;SDS011;3877;42.562;27.636;2022-12-07T07:21:13;19.27;;;13.50;;
7669;SDS011;3877;42.562;27.636;2022-12-07T07:23:40;22.57;;;13.83;;
7669;SDS011;3877;42.562;27.636;2022-12-07T07:26:07;16.50;;;11.87;;
7669;SDS011;3877;42.562;27.636;2022-12-07T07:28:33;17.77;;;12.53;;
7669;SDS011;3877;42.562;27.636;2022-12-07T07:31:00;14.77;;;11.07;;
7669;SDS011;3877;42.562;27.636;2022-12-07T07:33:29;15.80;;;10.83;;
7669;SDS011;3877;42.562;27.636;2022-12-07T07:35:56;13.70;;;10.93;;
7669;SDS011;3877;42.562;27.636;2022-12-07T07:38:23;15.83;;;11.17;;
7669;SDS011;3877;42.562;27.636;2022-12-07T07:40:50;17.40;;;10.70;;
7669;SDS011;3877;42.562;27.636;2022-12-07T07:43:17;17.03;;;10.53;;
7669;SDS011;3877;42.562;27.636;2022-12-07T07:45:44;15.13;;;10.87;;
7669;SDS011;3877;42.562;27.636;2022-12-07T07:48:11;14.33;;;11.03;;
7669;SDS011;3877;42.562;27.636;2022-12-07T07:50:40;13.30;;;10.33;;
7669;SDS011;3877;42.562;27.636;2022-12-07T07:53:07;14.77;;;11.63;;
7669;SDS011;3877;42.562;27.636;2022-12-07T07:55:34;19.40;;;10.57;;
7669;SDS011;3877;42.562;27.636;2022-12-07T07:58:01;14.07;;;9.30;;
7669;SDS011;3877;42.562;27.636;2022-12-07T08:00:28;11.93;;;9.70;;
7669;SDS011;3877;42.562;27.636;2022-12-07T08:02:55;13.03;;;9.03;;
7669;SDS011;3877;42.562;27.636;2022-12-07T08:05:22;13.43;;;10.03;;
7669;SDS011;3877;42.562;27.636;2022-12-07T08:07:50;13.13;;;9.80;;
7669;SDS011;3877;42.562;27.636;2022-12-07T08:10:17;14.43;;;10.70;;
7669;SDS011;3877;42.562;27.636;2022-12-07T08:12:44;15.70;;;12.00;;
7669;SDS011;3877;42.562;27.636;2022-12-07T08:15:25;19.23;;;13.33;;
7669;SDS011;3877;42.562;27.636;2022-12-07T08:17:52;19.23;;;12.80;;
7669;SDS011;3877;42.562;27.636;2022-12-07T08:20:18;26.27;;;14.73;;
7669;SDS011;3877;42.562;27.636;2022-12-07T08:22:45;18.43;;;15.43;;
7669;SDS011;3877;42.562;27.636;2022-12-07T08:25:13;21.50;;;15.63;;
7669;SDS011;3877;42.562;27.636;2022-12-07T08:27:41;23.33;;;14.83;;
7669;SDS011;3877;42.562;27.636;2022-12-07T08:30:08;23.60;;;16.47;;
7669;SDS011;3877;42.562;27.636;2022-12-07T08:32:35;25.17;;;15.77;;
7669;SDS011;3877;42.562;27.636;2022-12-07T08:35:02;23.60;;;16.67;;
7669;SDS011;3877;42.562;27.636;2022-12-07T08:37:28;27.73;;;18.43;;
7669;SDS011;3877;42.562;27.636;2022-12-07T08:39:58;22.33;;;15.97;;
7669;SDS011;3877;42.562;27.636;2022-12-07T08:42:26;22.73;;;16.37;;
7669;SDS011;3877;42.562;27.636;2022-12-07T08:44:55;23.37;;;16.07;;
7669;SDS011;3877;42.562;27.636;2022-12-07T08:47:22;28.17;;;15.63;;
7669;SDS011;3877;42.562;27.636;2022-12-07T08:49:49;24.23;;;16.57;;
7669;SDS011;3877;42.562;27.636;2022-12-07T08:52:18;28.83;;;15.57;;
7669;SDS011;3877;42.562;27.636;2022-12-07T08:54:44;24.47;;;16.63;;
7669;SDS011;3877;42.562;27.636;2022-12-07T08:57:11;23.87;;;16.17;;
7669;SDS011;3877;42.562;27.636;2022-12-07T08:59:40;25.17;;;16.17;;
7669;SDS011;3877;42.562;27.636;2022-12-07T09:02:07;21.50;;;14.43;;
7669;SDS011;3877;42.562;27.636;2022-12-07T09:04:34;21.03;;;14.87;;
7669;SDS011;3877;42.562;27.636;2022-12-07T09:07:01;18.23;;;15.10;;
7669;SDS011;3877;42.562;27.636;2022-12-07T09:09:29;24.90;;;16.33;;
7669;SDS011;3877;42.562;27.636;2022-12-07T09:11:56;25.47;;;16.97;;
7669;SDS011;3877;42.562;27.636;2022-12-07T09:14:22;23.23;;;16.60;;
7669;SDS011;3877;42.562;27.636;2022-12-07T09:16:51;24.83;;;17.57;;
7669;SDS011;3877;42.562;27.636;2022-12-07T09:19:18;26.00;;;18.50;;
7669;SDS011;3877;42.562;27.636;2022-12-07T09:21:44;24.23;;;18.03;;
7669;SDS011;3877;42.562;27.636;2022-12-07T09:24:11;23.03;;;17.27;;
7669;SDS011;3877;42.562;27.636;2022-12-07T09:26:38;29.90;;;19.37;;
7669;SDS011;3877;42.562;27.636;2022-12-07T09:29:05;29.50;;;19.17;;
7669;SDS011;3877;42.562;27.636;2022-12-07T09:31:32;29.93;;;20.10;;
7669;SDS011;3877;42.562;27.636;2022-12-07T09:34:01;29.83;;;21.07;;
7669;SDS011;3877;42.562;27.636;2022-12-07T09:36:28;30.17;;;21.80;;
7669;SDS011;3877;42.562;27.636;2022-12-07T09:38:55;33.67;;;21.80;;
7669;SDS011;3877;42.562;27.636;2022-12-07T09:41:22;32.37;;;22.43;;
7669;SDS011;3877;42.562;27.636;2022-12-07T09:43:50;31.93;;;21.33;;
7669;SDS011;3877;42.562;27.636;2022-12-07T09:46:17;37.03;;;22.97;;
7669;SDS011;3877;42.562;27.636;2022-12-07T09:48:45;33.87;;;23.97;;
7669;SDS011;3877;42.562;27.636;2022-12-07T09:51:15;38.90;;;23.97;;
7669;SDS011;3877;42.562;27.636;2022-12-07T09:53:42;34.00;;;23.47;;
7669;SDS011;3877;42.562;27.636;2022-12-07T09:56:10;36.10;;;24.67;;
7669;SDS011;3877;42.562;27.636;2022-12-07T09:58:38;35.50;;;24.03;;
7669;SDS011;3877;42.562;27.636;2022-12-07T10:01:09;39.17;;;25.30;;
7669;SDS011;3877;42.562;27.636;2022-12-07T10:03:37;31.97;;;24.33;;
7669;SDS011;3877;42.562;27.636;2022-12-07T10:06:05;33.77;;;24.33;;
7669;SDS011;3877;42.562;27.636;2022-12-07T10:08:34;35.17;;;25.47;;
7669;SDS011;3877;42.562;27.636;2022-12-07T10:11:01;38.20;;;25.60;;
7669;SDS011;3877;42.562;27.636;2022-12-07T10:13:34;41.20;;;25.13;;
7669;SDS011;3877;42.562;27.636;2022-12-07T10:16:01;33.10;;;23.77;;
7669;SDS011;3877;42.562;27.636;2022-12-07T10:18:29;36.47;;;25.30;;
7669;SDS011;3877;42.562;27.636;2022-12-07T10:21:03;35.97;;;23.33;;
7669;SDS011;3877;42.562;27.636;2022-12-07T10:23:34;37.40;;;21.90;;
7669;SDS011;3877;42.562;27.636;2022-12-07T10:26:09;31.20;;;21.30;;
7669;SDS011;3877;42.562;27.636;2022-12-07T10:28:45;30.67;;;20.27;;
7669;SDS011;3877;42.562;27.636;2022-12-07T10:31:15;30.53;;;20.03;;
7669;SDS011;3877;42.562;27.636;2022-12-07T10:33:48;33.73;;;20.97;;
7669;SDS011;3877;42.562;27.636;2022-12-07T10:36:16;28.87;;;20.53;;
7669;SDS011;3877;42.562;27.636;2022-12-07T10:38:46;29.03;;;20.53;;
7669;SDS011;3877;42.562;27.636;2022-12-07T10:41:13;26.73;;;18.97;;
7669;SDS011;3877;42.562;27.636;2022-12-07T10:43:46;22.13;;;16.70;;
7669;SDS011;3877;42.562;27.636;2022-12-07T10:46:19;24.20;;;16.37;;
7669;SDS011;3877;42.562;27.636;2022-12-07T10:48:50;23.00;;;15.10;;
7669;SDS011;3877;42.562;27.636;2022-12-07T10:51:22;22.00;;;15.53;;
7669;SDS011;3877;42.562;27.636;2022-12-07T10:53:54;20.37;;;14.33;;
7669;SDS011;3877;42.562;27.636;2022-12-07T10:56:36;21.33;;;13.53;;
7669;SDS011;3877;42.562;27.636;2022-12-07T10:59:15;20.37;;;13.23;;
7669;SDS011;3877;42.562;27.636;2022-12-07T11:01:45;18.00;;;12.90;;
7669;SDS011;3877;42.562;27.636;2022-12-07T11:04:18;18.27;;;12.30;;
7669;SDS011;3877;42.562;27.636;2022-12-07T11:06:47;16.07;;;12.07;;
7669;SDS011;3877;42.562;27.636;2022-12-07T11:12:09;23.07;;;13.90;;
7669;SDS011;3877;42.562;27.636;2022-12-07T11:14:40;20.73;;;12.90;;
7669;SDS011;3877;42.562;27.636;2022-12-07T11:17:09;16.97;;;12.73;;
7669;SDS011;3877;42.562;27.636;2022-12-07T11:19:55;19.20;;;12.20;;
7669;SDS011;3877;42.562;27.636;2022-12-07T11:22:29;17.87;;;13.00;;
7669;SDS011;3877;42.562;27.636;2022-12-07T11:24:57;19.77;;;12.40;;
7669;SDS011;3877;42.562;27.636;2022-12-07T11:27:30;16.77;;;12.83;;
7669;SDS011;3877;42.562;27.636;2022-12-07T11:30:02;20.80;;;13.40;;
7669;SDS011;3877;42.562;27.636;2022-12-07T11:32:37;18.80;;;11.97;;
7669;SDS011;3877;42.562;27.636;2022-12-07T11:35:11;15.17;;;11.60;;
7669;SDS011;3877;42.562;27.636;2022-12-07T11:37:41;18.00;;;12.70;;
7669;SDS011;3877;42.562;27.636;2022-12-07T11:40:13;13.23;;;11.13;;
7669;SDS011;3877;42.562;27.636;2022-12-07T11:42:44;15.77;;;11.33;;
7669;SDS011;3877;42.562;27.636;2022-12-07T11:45:13;16.37;;;10.97;;
7669;SDS011;3877;42.562;27.636;2022-12-07T11:47:43;18.37;;;11.93;;
7669;SDS011;3877;42.562;27.636;2022-12-07T11:50:15;17.40;;;11.33;;
7669;SDS011;3877;42.562;27.636;2022-12-07T11:52:45;14.87;;;11.77;;
7669;SDS011;3877;42.562;27.636;2022-12-07T11:55:18;23.10;;;15.80;;
7669;SDS011;3877;42.562;27.636;2022-12-07T11:57:48;18.43;;;12.40;;
7669;SDS011;3877;42.562;27.636;2022-12-07T12:00:18;19.23;;;12.70;;
7669;SDS011;3877;42.562;27.636;2022-12-07T12:02:47;17.63;;;12.20;;
7669;SDS011;3877;42.562;27.636;2022-12-07T12:05:16;16.70;;;12.30;;
7669;SDS011;3877;42.562;27.636;2022-12-07T12:07:44;14.70;;;10.87;;
7669;SDS011;3877;42.562;27.636;2022-12-07T12:10:16;15.03;;;11.63;;
7669;SDS011;3877;42.562;27.636;2022-12-07T12:12:58;16.27;;;11.70;;
7669;SDS011;3877;42.562;27.636;2022-12-07T12:15:35;14.43;;;11.80;;
7669;SDS011;3877;42.562;27.636;2022-12-07T12:20:51;16.23;;;12.53;;
7669;SDS011;3877;42.562;27.636;2022-12-07T12:23:22;17.30;;;13.33;;
7669;SDS011;3877;42.562;27.636;2022-12-07T12:25:50;17.53;;;12.67;;
7669;SDS011;3877;42.562;27.636;2022-12-07T12:28:22;19.43;;;12.93;;
7669;SDS011;3877;42.562;27.636;2022-12-07T12:31:04;21.17;;;13.03;;
7669;SDS011;3877;42.562;27.636;2022-12-07T12:33:32;24.40;;;14.30;;
7669;SDS011;3877;42.562;27.636;2022-12-07T12:38:51;20.50;;;15.77;;
7669;SDS011;3877;42.562;27.636;2022-12-07T12:44:41;27.57;;;18.10;;
7669;SDS011;3877;42.562;27.636;2022-12-07T12:52:54;26.83;;;18.50;;
7669;SDS011;3877;42.562;27.636;2022-12-07T12:55:26;32.17;;;21.13;;
7669;SDS011;3877;42.562;27.636;2022-12-07T13:00:42;31.93;;;20.50;;
7669;SDS011;3877;42.562;27.636;2022-12-07T13:03:19;39.13;;;20.20;;
7669;SDS011;3877;42.562;27.636;2022-12-07T13:05:47;28.60;;;19.33;;
7669;SDS011;3877;42.562;27.636;2022-12-07T13:08:15;26.87;;;19.17;;
7669;SDS011;3877;42.562;27.636;2022-12-07T13:10:44;35.20;;;20.73;;
7669;SDS011;3877;42.562;27.636;2022-12-07T13:19:00;27.53;;;18.53;;
7669;SDS011;3877;42.562;27.636;2022-12-07T13:24:12;30.63;;;19.73;;
7669;SDS011;3877;42.562;27.636;2022-12-07T13:26:41;33.47;;;20.80;;
7669;SDS011;3877;42.562;27.636;2022-12-07T13:29:10;31.33;;;21.47;;
7669;SDS011;3877;42.562;27.636;2022-12-07T13:31:38;35.90;;;21.23;;
7669;SDS011;3877;42.562;27.636;2022-12-07T13:34:27;28.53;;;19.50;;
7669;SDS011;3877;42.562;27.636;2022-12-07T13:36:54;29.37;;;20.67;;
7669;SDS011;3877;42.562;27.636;2022-12-07T13:39:22;34.43;;;19.33;;
7669;SDS011;3877;42.562;27.636;2022-12-07T13:41:50;27.07;;;17.93;;
7669;SDS011;3877;42.562;27.636;2022-12-07T13:44:17;29.03;;;17.97;;
7669;SDS011;3877;42.562;27.636;2022-12-07T13:46:47;32.50;;;21.07;;
7669;SDS011;3877;42.562;27.636;2022-12-07T13:49:19;41.10;;;23.13;;
7669;SDS011;3877;42.562;27.636;2022-12-07T13:51:46;33.63;;;22.30;;
7669;SDS011;3877;42.562;27.636;2022-12-07T13:54:13;29.40;;;19.50;;
7669;SDS011;3877;42.562;27.636;2022-12-07T13:56:41;32.20;;;20.67;;
7669;SDS011;3877;42.562;27.636;2022-12-07T13:59:10;28.03;;;17.57;;
7669;SDS011;3877;42.562;27.636;2022-12-07T14:01:39;28.13;;;20.07;;
7669;SDS011;3877;42.562;27.636;2022-12-07T14:06:53;33.00;;;24.30;;
7669;SDS011;3877;42.562;27.636;2022-12-07T14:09:20;34.33;;;23.73;;
7669;SDS011;3877;42.562;27.636;2022-12-07T14:11:47;23.40;;;18.80;;
7669;SDS011;3877;42.562;27.636;2022-12-07T14:14:16;34.17;;;23.00;;
7669;SDS011;3877;42.562;27.636;2022-12-07T14:16:54;25.63;;;18.80;;
7669;SDS011;3877;42.562;27.636;2022-12-07T14:19:41;27.53;;;18.03;;
7669;SDS011;3877;42.562;27.636;2022-12-07T14:22:20;24.03;;;16.83;;
7669;SDS011;3877;42.562;27.636;2022-12-07T14:24:48;25.53;;;16.13;;
7669;SDS011;3877;42.562;27.636;2022-12-07T14:27:16;21.97;;;16.17;;
7669;SDS011;3877;42.562;27.636;2022-12-07T14:29:43;52.77;;;29.17;;
7669;SDS011;3877;42.562;27.636;2022-12-07T14:32:20;31.77;;;23.83;;
7669;SDS011;3877;42.562;27.636;2022-12-07T14:34:56;38.70;;;26.13;;
7669;SDS011;3877;42.562;27.636;2022-12-07T14:37:25;34.90;;;20.33;;
7669;SDS011;3877;42.562;27.636;2022-12-07T14:39:52;33.93;;;21.57;;
7669;SDS011;3877;42.562;27.636;2022-12-07T14:42:19;39.37;;;22.87;;
7669;SDS011;3877;42.562;27.636;2022-12-07T14:44:46;29.77;;;19.63;;
7669;SDS011;3877;42.562;27.636;2022-12-07T14:47:13;28.77;;;18.60;;
7669;SDS011;3877;42.562;27.636;2022-12-07T14:49:40;34.50;;;17.30;;
7669;SDS011;3877;42.562;27.636;2022-12-07T14:52:08;28.13;;;17.77;;
7669;SDS011;3877;42.562;27.636;2022-12-07T14:54:40;28.77;;;19.83;;
7669;SDS011;3877;42.562;27.636;2022-12-07T14:57:08;33.67;;;21.57;;
7669;SDS011;3877;42.562;27.636;2022-12-07T14:59:35;30.20;;;20.63;;
7669;SDS011;3877;42.562;27.636;2022-12-07T15:02:02;26.33;;;20.00;;
7669;SDS011;3877;42.562;27.636;2022-12-07T15:04:28;33.83;;;18.67;;
7669;SDS011;3877;42.562;27.636;2022-12-07T15:06:56;23.63;;;17.53;;
7669;SDS011;3877;42.562;27.636;2022-12-07T15:09:22;23.33;;;16.87;;
7669;SDS011;3877;42.562;27.636;2022-12-07T15:11:51;24.43;;;16.40;;
7669;SDS011;3877;42.562;27.636;2022-12-07T15:14:18;24.47;;;16.17;;
7669;SDS011;3877;42.562;27.636;2022-12-07T15:16:45;21.17;;;15.80;;
7669;SDS011;3877;42.562;27.636;2022-12-07T15:19:13;20.30;;;14.57;;